sensor_id;sensor_type;location;lat;lon;timestamp;pressure;altitude;pressure_sealevel;temperature;humidity
55022;BME280;68328;35.990;-86.756;2024-03-22T00:01:41;99167.27;;;25.42;15.10
55022;BME280;68328;35.990;-86.756;2024-03-22T00:04:08;99169.04;;;25.12;15.10
55022;BME280;68328;35.990;-86.756;2024-03-22T00:06:33;99167.30;;;25.05;15.17
55022;BME280;68328;35.990;-86.756;2024-03-22T00:08:58;99168.62;;;24.93;15.16
55022;BME280;68328;35.990;-86.756;2024-03-22T00:11:23;99174.00;;;25.07;14.74
55022;BME280;68328;35.990;-86.756;2024-03-22T00:13:48;99178.41;;;24.90;15.01
55022;BME280;68328;35.990;-86.756;2024-03-22T00:16:13;99183.93;;;24.78;15.15
55022;BME280;68328;35.990;-86.756;2024-03-22T00:18:39;99185.38;;;24.69;15.18
55022;BME280;68328;35.990;-86.756;2024-03-22T00:21:04;99182.87;;;24.58;15.30
55022;BME280;68328;35.990;-86.756;2024-03-22T00:23:29;99190.10;;;24.47;15.63
55022;BME280;68328;35.990;-86.756;2024-03-22T00:25:56;99190.01;;;24.16;15.40
55022;BME280;68328;35.990;-86.756;2024-03-22T00:28:19;99186.63;;;24.35;15.42
55022;BME280;68328;35.990;-86.756;2024-03-22T00:30:45;99188.28;;;24.34;15.67
55022;BME280;68328;35.990;-86.756;2024-03-22T00:33:10;99185.91;;;24.52;15.48
55022;BME280;68328;35.990;-86.756;2024-03-22T00:35:35;99184.91;;;24.18;15.76
55022;BME280;68328;35.990;-86.756;2024-03-22T00:38:02;99185.98;;;24.07;16.15
55022;BME280;68328;35.990;-86.756;2024-03-22T00:40:26;99184.09;;;24.02;16.14
55022;BME280;68328;35.990;-86.756;2024-03-22T00:42:52;99184.83;;;24.18;16.26
55022;BME280;68328;35.990;-86.756;2024-03-22T00:45:16;99184.36;;;24.05;16.67
55022;BME280;68328;35.990;-86.756;2024-03-22T00:47:42;99182.81;;;23.93;16.97
55022;BME280;68328;35.990;-86.756;2024-03-22T00:50:08;99184.72;;;23.72;16.89
55022;BME280;68328;35.990;-86.756;2024-03-22T00:52:32;99184.42;;;23.81;16.79
55022;BME280;68328;35.990;-86.756;2024-03-22T00:54:58;99184.11;;;23.72;16.98
55022;BME280;68328;35.990;-86.756;2024-03-22T00:57:23;99182.09;;;23.87;16.95
55022;BME280;68328;35.990;-86.756;2024-03-22T00:59:49;99176.94;;;23.32;16.94
55022;BME280;68328;35.990;-86.756;2024-03-22T01:02:14;99176.04;;;23.52;16.62
55022;BME280;68328;35.990;-86.756;2024-03-22T01:04:39;99174.22;;;23.47;17.02
55022;BME280;68328;35.990;-86.756;2024-03-22T01:07:04;99175.42;;;23.67;17.00
55022;BME280;68328;35.990;-86.756;2024-03-22T01:09:30;99176.03;;;23.15;17.06
55022;BME280;68328;35.990;-86.756;2024-03-22T01:11:56;99174.31;;;23.59;17.21
55022;BME280;68328;35.990;-86.756;2024-03-22T01:14:20;99175.30;;;23.28;17.11
55022;BME280;68328;35.990;-86.756;2024-03-22T01:16:45;99177.97;;;23.44;16.71
55022;BME280;68328;35.990;-86.756;2024-03-22T01:19:10;99176.85;;;23.38;16.28
55022;BME280;68328;35.990;-86.756;2024-03-22T01:21:35;99172.51;;;23.05;16.46
55022;BME280;68328;35.990;-86.756;2024-03-22T01:24:01;99174.12;;;23.05;16.27
55022;BME280;68328;35.990;-86.756;2024-03-22T01:26:26;99178.31;;;23.10;16.02
55022;BME280;68328;35.990;-86.756;2024-03-22T01:28:52;99181.21;;;23.02;16.01
55022;BME280;68328;35.990;-86.756;2024-03-22T01:31:17;99181.30;;;22.94;15.90
55022;BME280;68328;35.990;-86.756;2024-03-22T01:33:42;99176.64;;;22.95;16.28
55022;BME280;68328;35.990;-86.756;2024-03-22T01:36:08;99174.03;;;22.94;16.00
55022;BME280;68328;35.990;-86.756;2024-03-22T01:38:33;99176.54;;;22.88;15.67
55022;BME280;68328;35.990;-86.756;2024-03-22T01:40:58;99179.82;;;23.28;15.89
55022;BME280;68328;35.990;-86.756;2024-03-22T01:43:23;99175.93;;;22.78;16.07
55022;BME280;68328;35.990;-86.756;2024-03-22T01:45:49;99171.74;;;22.75;16.43
55022;BME280;68328;35.990;-86.756;2024-03-22T01:48:15;99166.62;;;22.93;16.39
55022;BME280;68328;35.990;-86.756;2024-03-22T01:50:39;99161.51;;;22.46;16.17
55022;BME280;68328;35.990;-86.756;2024-03-22T01:53:05;99161.87;;;22.64;16.10
55022;BME280;68328;35.990;-86.756;2024-03-22T01:55:30;99163.73;;;23.04;16.12
55022;BME280;68328;35.990;-86.756;2024-03-22T01:57:56;99163.04;;;23.05;15.99
55022;BME280;68328;35.990;-86.756;2024-03-22T02:00:21;99165.62;;;22.85;16.19
55022;BME280;68328;35.990;-86.756;2024-03-22T02:02:45;99168.45;;;22.85;15.74
55022;BME280;68328;35.990;-86.756;2024-03-22T02:05:12;99170.70;;;22.92;15.85
55022;BME280;68328;35.990;-86.756;2024-03-22T02:07:36;99172.36;;;22.56;16.06
55022;BME280;68328;35.990;-86.756;2024-03-22T02:10:02;99172.36;;;22.73;16.34
55022;BME280;68328;35.990;-86.756;2024-03-22T02:12:27;99170.38;;;22.52;16.65
55022;BME280;68328;35.990;-86.756;2024-03-22T02:14:52;99167.02;;;22.42;16.53
55022;BME280;68328;35.990;-86.756;2024-03-22T02:17:17;99169.21;;;22.38;16.78
55022;BME280;68328;35.990;-86.756;2024-03-22T02:19:43;99177.27;;;22.56;16.97
55022;BME280;68328;35.990;-86.756;2024-03-22T02:22:09;99178.15;;;22.47;17.07
55022;BME280;68328;35.990;-86.756;2024-03-22T02:24:33;99178.95;;;22.43;17.07
55022;BME280;68328;35.990;-86.756;2024-03-22T02:26:58;99177.54;;;22.08;16.82
55022;BME280;68328;35.990;-86.756;2024-03-22T02:29:24;99177.52;;;22.23;16.81
55022;BME280;68328;35.990;-86.756;2024-03-22T02:31:49;99177.39;;;22.17;16.56
55022;BME280;68328;35.990;-86.756;2024-03-22T02:34:14;99180.89;;;22.19;16.51
55022;BME280;68328;35.990;-86.756;2024-03-22T02:36:40;99181.76;;;22.13;16.57
55022;BME280;68328;35.990;-86.756;2024-03-22T02:39:05;99181.43;;;22.08;16.52
55022;BME280;68328;35.990;-86.756;2024-03-22T02:41:30;99180.68;;;22.07;16.48
55022;BME280;68328;35.990;-86.756;2024-03-22T02:43:56;99182.32;;;22.02;17.01
55022;BME280;68328;35.990;-86.756;2024-03-22T02:46:21;99180.44;;;22.42;16.75
55022;BME280;68328;35.990;-86.756;2024-03-22T02:48:47;99182.83;;;21.90;16.76
55022;BME280;68328;35.990;-86.756;2024-03-22T02:51:11;99186.26;;;21.76;16.32
55022;BME280;68328;35.990;-86.756;2024-03-22T02:53:37;99181.88;;;21.92;16.50
55022;BME280;68328;35.990;-86.756;2024-03-22T02:56:02;99180.39;;;21.62;17.00
55022;BME280;68328;35.990;-86.756;2024-03-22T02:58:27;99177.62;;;21.62;17.35
55022;BME280;68328;35.990;-86.756;2024-03-22T03:00:53;99179.20;;;21.65;17.34
55022;BME280;68328;35.990;-86.756;2024-03-22T03:03:18;99180.46;;;21.64;17.53
55022;BME280;68328;35.990;-86.756;2024-03-22T03:05:43;99177.41;;;21.65;17.43
55022;BME280;68328;35.990;-86.756;2024-03-22T03:08:10;99175.71;;;21.88;17.19
55022;BME280;68328;35.990;-86.756;2024-03-22T03:10:34;99176.13;;;21.64;17.00
55022;BME280;68328;35.990;-86.756;2024-03-22T03:13:00;99175.70;;;21.91;16.60
55022;BME280;68328;35.990;-86.756;2024-03-22T03:15:24;99174.50;;;21.62;17.01
55022;BME280;68328;35.990;-86.756;2024-03-22T03:17:50;99173.56;;;21.59;16.74
55022;BME280;68328;35.990;-86.756;2024-03-22T03:20:15;99171.36;;;21.53;17.09
55022;BME280;68328;35.990;-86.756;2024-03-22T03:22:41;99166.83;;;21.48;17.15
55022;BME280;68328;35.990;-86.756;2024-03-22T03:25:07;99169.67;;;21.49;16.94
55022;BME280;68328;35.990;-86.756;2024-03-22T03:27:31;99171.59;;;21.74;17.28
55022;BME280;68328;35.990;-86.756;2024-03-22T03:29:57;99172.10;;;21.74;16.95
55022;BME280;68328;35.990;-86.756;2024-03-22T03:32:22;99173.27;;;21.57;16.96
55022;BME280;68328;35.990;-86.756;2024-03-22T03:34:47;99171.56;;;21.64;16.81
55022;BME280;68328;35.990;-86.756;2024-03-22T03:37:12;99169.20;;;21.74;17.23
55022;BME280;68328;35.990;-86.756;2024-03-22T03:39:37;99165.26;;;21.80;17.38
55022;BME280;68328;35.990;-86.756;2024-03-22T03:42:03;99159.53;;;21.54;17.60
55022;BME280;68328;35.990;-86.756;2024-03-22T03:44:28;99160.57;;;21.79;17.59
55022;BME280;68328;35.990;-86.756;2024-03-22T03:46:54;99158.33;;;21.79;17.20
55022;BME280;68328;35.990;-86.756;2024-03-22T03:49:18;99152.50;;;21.78;17.17
55022;BME280;68328;35.990;-86.756;2024-03-22T03:51:44;99152.40;;;21.93;16.94
55022;BME280;68328;35.990;-86.756;2024-03-22T03:54:09;99152.78;;;21.65;16.98
55022;BME280;68328;35.990;-86.756;2024-03-22T03:56:34;99153.63;;;21.62;17.23
55022;BME280;68328;35.990;-86.756;2024-03-22T03:59:00;99152.79;;;21.62;16.85
55022;BME280;68328;35.990;-86.756;2024-03-22T04:01:25;99153.74;;;21.81;17.18
55022;BME280;68328;35.990;-86.756;2024-03-22T04:03:50;99153.21;;;21.51;17.13
55022;BME280;68328;35.990;-86.756;2024-03-22T04:06:16;99150.69;;;21.47;16.87
55022;BME280;68328;35.990;-86.756;2024-03-22T04:08:41;99149.34;;;21.44;16.85
55022;BME280;68328;35.990;-86.756;2024-03-22T04:11:07;99148.70;;;21.61;17.21
55022;BME280;68328;35.990;-86.756;2024-03-22T04:13:31;99145.02;;;21.62;17.11
55022;BME280;68328;35.990;-86.756;2024-03-22T04:15:59;99144.09;;;21.38;17.20
55022;BME280;68328;35.990;-86.756;2024-03-22T04:18:22;99148.80;;;21.88;17.89
55022;BME280;68328;35.990;-86.756;2024-03-22T04:20:53;99140.41;;;21.35;17.90
55022;BME280;68328;35.990;-86.756;2024-03-22T04:23:13;99138.82;;;21.85;17.41
55022;BME280;68328;35.990;-86.756;2024-03-22T04:25:38;99139.54;;;21.81;17.40
55022;BME280;68328;35.990;-86.756;2024-03-22T04:28:04;99136.65;;;21.55;17.26
55022;BME280;68328;35.990;-86.756;2024-03-22T04:30:28;99137.56;;;21.53;16.83
55022;BME280;68328;35.990;-86.756;2024-03-22T04:32:54;99136.19;;;21.27;17.04
55022;BME280;68328;35.990;-86.756;2024-03-22T04:35:19;99133.11;;;21.48;17.48
55022;BME280;68328;35.990;-86.756;2024-03-22T04:37:44;99134.75;;;21.24;17.38
55022;BME280;68328;35.990;-86.756;2024-03-22T04:40:11;99132.86;;;21.48;17.05
55022;BME280;68328;35.990;-86.756;2024-03-22T04:42:35;99131.93;;;21.19;17.36
55022;BME280;68328;35.990;-86.756;2024-03-22T04:45:01;99132.70;;;21.64;17.49
55022;BME280;68328;35.990;-86.756;2024-03-22T04:47:26;99131.65;;;21.61;17.38
55022;BME280;68328;35.990;-86.756;2024-03-22T04:49:51;99130.57;;;21.17;16.92
55022;BME280;68328;35.990;-86.756;2024-03-22T04:52:16;99132.99;;;21.58;17.06
55022;BME280;68328;35.990;-86.756;2024-03-22T04:54:42;99129.89;;;21.55;17.16
55022;BME280;68328;35.990;-86.756;2024-03-22T04:57:07;99125.57;;;21.51;17.06
55022;BME280;68328;35.990;-86.756;2024-03-22T04:59:32;99118.52;;;21.49;17.09
55022;BME280;68328;35.990;-86.756;2024-03-22T05:01:57;99113.95;;;21.30;17.05
55022;BME280;68328;35.990;-86.756;2024-03-22T05:04:24;99113.54;;;21.51;17.04
55022;BME280;68328;35.990;-86.756;2024-03-22T05:06:48;99112.99;;;21.17;16.74
55022;BME280;68328;35.990;-86.756;2024-03-22T05:09:14;99110.07;;;21.35;16.79
55022;BME280;68328;35.990;-86.756;2024-03-22T05:11:39;99106.92;;;21.04;16.91
55022;BME280;68328;35.990;-86.756;2024-03-22T05:14:04;99104.62;;;21.25;16.90
55022;BME280;68328;35.990;-86.756;2024-03-22T05:16:29;99096.83;;;20.98;16.91
55022;BME280;68328;35.990;-86.756;2024-03-22T05:18:55;99090.67;;;21.25;17.19
55022;BME280;68328;35.990;-86.756;2024-03-22T05:21:21;99087.49;;;20.75;17.14
55022;BME280;68328;35.990;-86.756;2024-03-22T05:23:45;99083.32;;;21.17;17.16
55022;BME280;68328;35.990;-86.756;2024-03-22T05:26:11;99076.47;;;21.21;17.33
55022;BME280;68328;35.990;-86.756;2024-03-22T05:28:36;99072.84;;;20.75;17.25
55022;BME280;68328;35.990;-86.756;2024-03-22T05:31:01;99072.52;;;20.79;17.45
55022;BME280;68328;35.990;-86.756;2024-03-22T05:33:28;99078.57;;;21.26;17.68
55022;BME280;68328;35.990;-86.756;2024-03-22T05:35:52;99078.82;;;21.26;17.55
55022;BME280;68328;35.990;-86.756;2024-03-22T05:38:17;99076.56;;;21.24;17.30
55022;BME280;68328;35.990;-86.756;2024-03-22T05:40:42;99076.98;;;21.06;17.66
55022;BME280;68328;35.990;-86.756;2024-03-22T05:43:08;99075.64;;;21.32;17.84
55022;BME280;68328;35.990;-86.756;2024-03-22T05:45:34;99072.97;;;21.08;17.55
55022;BME280;68328;35.990;-86.756;2024-03-22T05:47:58;99068.73;;;21.28;17.61
55022;BME280;68328;35.990;-86.756;2024-03-22T05:50:23;99063.12;;;21.28;17.27
55022;BME280;68328;35.990;-86.756;2024-03-22T05:52:49;99061.00;;;21.27;17.57
55022;BME280;68328;35.990;-86.756;2024-03-22T05:55:14;99062.26;;;21.27;17.75
55022;BME280;68328;35.990;-86.756;2024-03-22T05:57:40;99062.92;;;21.01;17.76
55022;BME280;68328;35.990;-86.756;2024-03-22T06:00:06;99063.06;;;21.26;17.98
55022;BME280;68328;35.990;-86.756;2024-03-22T06:02:30;99061.08;;;21.26;18.03
55022;BME280;68328;35.990;-86.756;2024-03-22T06:04:55;99059.34;;;21.28;18.19
55022;BME280;68328;35.990;-86.756;2024-03-22T06:07:21;99061.69;;;21.28;18.18
55022;BME280;68328;35.990;-86.756;2024-03-22T06:09:47;99063.76;;;21.08;18.04
55022;BME280;68328;35.990;-86.756;2024-03-22T06:12:11;99067.16;;;21.35;18.03
55022;BME280;68328;35.990;-86.756;2024-03-22T06:14:37;99070.62;;;21.35;18.31
55022;BME280;68328;35.990;-86.756;2024-03-22T06:17:03;99069.88;;;21.30;18.63
55022;BME280;68328;35.990;-86.756;2024-03-22T06:19:27;99070.01;;;21.03;18.23
55022;BME280;68328;35.990;-86.756;2024-03-22T06:21:54;99072.64;;;21.21;17.72
55022;BME280;68328;35.990;-86.756;2024-03-22T06:24:18;99071.83;;;21.14;17.44
55022;BME280;68328;35.990;-86.756;2024-03-22T06:26:43;99078.42;;;20.87;17.65
55022;BME280;68328;35.990;-86.756;2024-03-22T06:29:08;99080.78;;;21.06;18.44
55022;BME280;68328;35.990;-86.756;2024-03-22T06:31:34;99084.38;;;20.99;18.75
55022;BME280;68328;35.990;-86.756;2024-03-22T06:33:59;99081.22;;;20.99;18.40
55022;BME280;68328;35.990;-86.756;2024-03-22T06:36:24;99081.15;;;20.73;18.65
55022;BME280;68328;35.990;-86.756;2024-03-22T06:38:50;99085.48;;;20.87;18.76
55022;BME280;68328;35.990;-86.756;2024-03-22T06:41:15;99086.46;;;20.95;18.55
55022;BME280;68328;35.990;-86.756;2024-03-22T06:43:40;99091.00;;;20.53;18.57
55022;BME280;68328;35.990;-86.756;2024-03-22T06:46:06;99096.82;;;20.64;19.02
55022;BME280;68328;35.990;-86.756;2024-03-22T06:48:31;99114.53;;;20.55;18.64
55022;BME280;68328;35.990;-86.756;2024-03-22T06:50:56;99118.24;;;20.45;19.29
55022;BME280;68328;35.990;-86.756;2024-03-22T06:53:21;99113.87;;;20.04;19.37
55022;BME280;68328;35.990;-86.756;2024-03-22T06:55:47;99107.15;;;20.09;19.80
55022;BME280;68328;35.990;-86.756;2024-03-22T06:58:13;99099.19;;;20.18;20.27
55022;BME280;68328;35.990;-86.756;2024-03-22T07:00:37;99091.20;;;20.28;20.22
55022;BME280;68328;35.990;-86.756;2024-03-22T07:03:04;99084.50;;;20.14;20.03
55022;BME280;68328;35.990;-86.756;2024-03-22T07:05:28;99080.50;;;20.66;19.96
55022;BME280;68328;35.990;-86.756;2024-03-22T07:07:53;99074.50;;;20.39;20.26
55022;BME280;68328;35.990;-86.756;2024-03-22T07:10:19;99066.93;;;20.42;20.49
55022;BME280;68328;35.990;-86.756;2024-03-22T07:12:44;99059.06;;;20.19;20.61
55022;BME280;68328;35.990;-86.756;2024-03-22T07:15:10;99051.92;;;20.28;20.67
55022;BME280;68328;35.990;-86.756;2024-03-22T07:17:35;99058.20;;;20.58;20.84
55022;BME280;68328;35.990;-86.756;2024-03-22T07:20:00;99052.83;;;20.48;21.13
55022;BME280;68328;35.990;-86.756;2024-03-22T07:22:25;99055.33;;;20.63;21.56
55022;BME280;68328;35.990;-86.756;2024-03-22T07:24:51;99055.81;;;20.33;21.59
55022;BME280;68328;35.990;-86.756;2024-03-22T07:27:18;99049.38;;;20.27;21.49
55022;BME280;68328;35.990;-86.756;2024-03-22T07:29:43;99040.90;;;20.34;21.34
55022;BME280;68328;35.990;-86.756;2024-03-22T07:32:06;99030.60;;;20.15;21.39
55022;BME280;68328;35.990;-86.756;2024-03-22T07:34:32;99024.26;;;20.43;21.51
55022;BME280;68328;35.990;-86.756;2024-03-22T07:36:57;99022.22;;;20.70;21.48
55022;BME280;68328;35.990;-86.756;2024-03-22T07:39:22;99011.41;;;20.20;21.63
55022;BME280;68328;35.990;-86.756;2024-03-22T07:41:50;98998.07;;;20.42;21.49
55022;BME280;68328;35.990;-86.756;2024-03-22T07:44:13;98991.30;;;20.32;21.62
55022;BME280;68328;35.990;-86.756;2024-03-22T07:46:39;98984.35;;;20.26;21.17
55022;BME280;68328;35.990;-86.756;2024-03-22T07:49:04;98979.99;;;20.18;20.50
55022;BME280;68328;35.990;-86.756;2024-03-22T07:51:29;98984.21;;;20.15;20.61
55022;BME280;68328;35.990;-86.756;2024-03-22T07:53:55;98986.46;;;20.36;21.05
55022;BME280;68328;35.990;-86.756;2024-03-22T07:56:20;98981.13;;;20.08;21.19
55022;BME280;68328;35.990;-86.756;2024-03-22T07:58:45;98966.89;;;19.86;20.89
55022;BME280;68328;35.990;-86.756;2024-03-22T08:01:11;98969.65;;;20.12;21.35
55022;BME280;68328;35.990;-86.756;2024-03-22T08:03:35;98967.25;;;20.08;21.02
55022;BME280;68328;35.990;-86.756;2024-03-22T08:06:01;98969.15;;;20.28;20.91
55022;BME280;68328;35.990;-86.756;2024-03-22T08:08:26;98970.90;;;20.00;20.94
55022;BME280;68328;35.990;-86.756;2024-03-22T08:10:51;98972.15;;;20.29;21.72
55022;BME280;68328;35.990;-86.756;2024-03-22T08:13:17;98968.52;;;20.00;20.95
55022;BME280;68328;35.990;-86.756;2024-03-22T08:15:42;98972.89;;;20.25;21.00
55022;BME280;68328;35.990;-86.756;2024-03-22T08:18:07;98981.14;;;20.27;20.61
55022;BME280;68328;35.990;-86.756;2024-03-22T08:20:33;98981.29;;;20.03;21.21
55022;BME280;68328;35.990;-86.756;2024-03-22T08:22:58;98981.14;;;20.06;20.65
55022;BME280;68328;35.990;-86.756;2024-03-22T08:25:24;98983.47;;;20.12;20.44
55022;BME280;68328;35.990;-86.756;2024-03-22T08:27:49;98974.91;;;19.94;20.45
55022;BME280;68328;35.990;-86.756;2024-03-22T08:30:14;98968.70;;;20.48;20.21
55022;BME280;68328;35.990;-86.756;2024-03-22T08:32:39;98957.05;;;20.55;20.37
55022;BME280;68328;35.990;-86.756;2024-03-22T08:35:05;98953.63;;;20.33;20.62
55022;BME280;68328;35.990;-86.756;2024-03-22T08:37:30;98950.87;;;20.60;20.57
55022;BME280;68328;35.990;-86.756;2024-03-22T08:39:55;98945.36;;;20.15;20.93
55022;BME280;68328;35.990;-86.756;2024-03-22T08:42:20;98943.21;;;20.13;20.87
55022;BME280;68328;35.990;-86.756;2024-03-22T08:44:46;98943.69;;;20.40;21.48
55022;BME280;68328;35.990;-86.756;2024-03-22T08:47:11;98942.24;;;20.36;22.25
55022;BME280;68328;35.990;-86.756;2024-03-22T08:49:37;98938.35;;;20.27;22.49
55022;BME280;68328;35.990;-86.756;2024-03-22T08:52:02;98935.31;;;20.40;22.66
55022;BME280;68328;35.990;-86.756;2024-03-22T08:54:28;98931.49;;;20.10;22.61
55022;BME280;68328;35.990;-86.756;2024-03-22T08:56:53;98931.65;;;19.97;22.40
55022;BME280;68328;35.990;-86.756;2024-03-22T08:59:18;98931.55;;;20.22;22.66
55022;BME280;68328;35.990;-86.756;2024-03-22T09:01:44;98928.10;;;20.17;22.90
55022;BME280;68328;35.990;-86.756;2024-03-22T09:04:09;98929.71;;;20.18;23.10
55022;BME280;68328;35.990;-86.756;2024-03-22T09:06:34;98926.60;;;20.19;23.23
55022;BME280;68328;35.990;-86.756;2024-03-22T09:08:59;98924.65;;;20.16;23.66
55022;BME280;68328;35.990;-86.756;2024-03-22T09:11:25;98918.65;;;19.86;24.24
55022;BME280;68328;35.990;-86.756;2024-03-22T09:13:52;98911.96;;;20.01;24.15
55022;BME280;68328;35.990;-86.756;2024-03-22T09:16:15;98906.14;;;19.92;24.32
55022;BME280;68328;35.990;-86.756;2024-03-22T09:18:41;98900.61;;;19.87;24.77
55022;BME280;68328;35.990;-86.756;2024-03-22T09:21:06;98895.31;;;19.84;25.09
55022;BME280;68328;35.990;-86.756;2024-03-22T09:23:31;98896.87;;;19.92;24.75
55022;BME280;68328;35.990;-86.756;2024-03-22T09:25:57;98895.08;;;19.94;25.34
55022;BME280;68328;35.990;-86.756;2024-03-22T09:28:22;98884.64;;;19.92;24.59
55022;BME280;68328;35.990;-86.756;2024-03-22T09:30:47;98891.23;;;19.99;24.43
55022;BME280;68328;35.990;-86.756;2024-03-22T09:33:13;98882.75;;;19.91;24.52
55022;BME280;68328;35.990;-86.756;2024-03-22T09:35:38;98880.32;;;19.83;24.38
55022;BME280;68328;35.990;-86.756;2024-03-22T09:38:03;98882.01;;;19.62;24.58
55022;BME280;68328;35.990;-86.756;2024-03-22T09:40:28;98888.52;;;19.51;24.57
55022;BME280;68328;35.990;-86.756;2024-03-22T09:42:54;98899.05;;;19.31;24.78
55022;BME280;68328;35.990;-86.756;2024-03-22T09:45:20;98897.77;;;19.57;25.17
55022;BME280;68328;35.990;-86.756;2024-03-22T09:47:45;98896.35;;;19.60;24.75
55022;BME280;68328;35.990;-86.756;2024-03-22T09:50:10;98897.06;;;19.90;24.73
55022;BME280;68328;35.990;-86.756;2024-03-22T09:52:38;98900.57;;;19.71;24.96
55022;BME280;68328;35.990;-86.756;2024-03-22T09:55:00;98897.71;;;19.77;24.70
55022;BME280;68328;35.990;-86.756;2024-03-22T09:57:27;98898.33;;;19.75;24.52
55022;BME280;68328;35.990;-86.756;2024-03-22T09:59:51;98898.88;;;19.77;24.51
55022;BME280;68328;35.990;-86.756;2024-03-22T10:02:16;98893.05;;;19.81;24.53
55022;BME280;68328;35.990;-86.756;2024-03-22T10:04:42;98884.01;;;19.82;24.63
55022;BME280;68328;35.990;-86.756;2024-03-22T10:07:07;98884.72;;;19.75;24.81
55022;BME280;68328;35.990;-86.756;2024-03-22T10:09:34;98880.59;;;19.80;24.80
55022;BME280;68328;35.990;-86.756;2024-03-22T10:11:58;98875.91;;;19.81;24.51
55022;BME280;68328;35.990;-86.756;2024-03-22T10:14:23;98879.33;;;19.69;24.48
55022;BME280;68328;35.990;-86.756;2024-03-22T10:16:48;98880.53;;;19.64;24.68
55022;BME280;68328;35.990;-86.756;2024-03-22T10:19:17;98882.69;;;19.63;24.88
55022;BME280;68328;35.990;-86.756;2024-03-22T10:21:39;98889.65;;;19.62;24.72
55022;BME280;68328;35.990;-86.756;2024-03-22T10:24:07;98883.76;;;19.54;24.56
55022;BME280;68328;35.990;-86.756;2024-03-22T10:26:33;98886.57;;;19.55;24.58
55022;BME280;68328;35.990;-86.756;2024-03-22T10:28:55;98881.64;;;19.50;24.45
55022;BME280;68328;35.990;-86.756;2024-03-22T10:31:21;98885.41;;;19.58;24.49
55022;BME280;68328;35.990;-86.756;2024-03-22T10:33:48;98886.43;;;19.63;24.53
55022;BME280;68328;35.990;-86.756;2024-03-22T10:36:13;98890.34;;;19.70;24.46
55022;BME280;68328;35.990;-86.756;2024-03-22T10:38:39;98887.84;;;19.69;24.72
55022;BME280;68328;35.990;-86.756;2024-03-22T10:41:03;98885.03;;;19.72;24.82
55022;BME280;68328;35.990;-86.756;2024-03-22T10:43:28;98880.78;;;19.50;24.71
55022;BME280;68328;35.990;-86.756;2024-03-22T10:45:56;98875.54;;;19.79;24.84
55022;BME280;68328;35.990;-86.756;2024-03-22T10:48:20;98880.61;;;19.79;24.62
55022;BME280;68328;35.990;-86.756;2024-03-22T10:50:44;98883.84;;;19.78;24.66
55022;BME280;68328;35.990;-86.756;2024-03-22T10:53:14;98887.58;;;19.82;24.81
55022;BME280;68328;35.990;-86.756;2024-03-22T10:55:37;98885.05;;;19.80;24.89
55022;BME280;68328;35.990;-86.756;2024-03-22T10:58:00;98888.75;;;19.79;24.98
55022;BME280;68328;35.990;-86.756;2024-03-22T11:00:29;98892.47;;;19.80;25.00
55022;BME280;68328;35.990;-86.756;2024-03-22T11:02:53;98892.60;;;19.80;24.98
55022;BME280;68328;35.990;-86.756;2024-03-22T11:05:17;98888.61;;;19.80;24.75
55022;BME280;68328;35.990;-86.756;2024-03-22T11:07:43;98886.62;;;19.47;24.71
55022;BME280;68328;35.990;-86.756;2024-03-22T11:10:08;98884.36;;;19.72;24.67
55022;BME280;68328;35.990;-86.756;2024-03-22T11:12:32;98874.04;;;19.70;24.76
55022;BME280;68328;35.990;-86.756;2024-03-22T11:14:57;98871.29;;;19.63;24.62
55022;BME280;68328;35.990;-86.756;2024-03-22T11:17:23;98873.03;;;19.37;24.53
55022;BME280;68328;35.990;-86.756;2024-03-22T11:19:48;98871.54;;;19.85;24.62
55022;BME280;68328;35.990;-86.756;2024-03-22T11:22:13;98870.21;;;19.59;24.98
55022;BME280;68328;35.990;-86.756;2024-03-22T11:24:38;98868.01;;;19.55;25.05
55022;BME280;68328;35.990;-86.756;2024-03-22T11:27:04;98867.02;;;19.79;25.06
55022;BME280;68328;35.990;-86.756;2024-03-22T11:29:30;98864.51;;;19.57;25.27
55022;BME280;68328;35.990;-86.756;2024-03-22T11:31:54;98859.60;;;19.53;25.36
55022;BME280;68328;35.990;-86.756;2024-03-22T11:34:20;98852.82;;;19.78;25.46
55022;BME280;68328;35.990;-86.756;2024-03-22T11:36:45;98854.43;;;19.27;25.58
55022;BME280;68328;35.990;-86.756;2024-03-22T11:39:13;98861.87;;;19.71;25.80
55022;BME280;68328;35.990;-86.756;2024-03-22T11:41:36;98861.95;;;19.40;26.09
55022;BME280;68328;35.990;-86.756;2024-03-22T11:44:01;98856.32;;;19.27;26.22
55022;BME280;68328;35.990;-86.756;2024-03-22T11:46:27;98861.72;;;19.46;26.36
55022;BME280;68328;35.990;-86.756;2024-03-22T11:48:52;98856.72;;;19.05;26.26
55022;BME280;68328;35.990;-86.756;2024-03-22T11:51:18;98851.29;;;19.26;26.27
55022;BME280;68328;35.990;-86.756;2024-03-22T11:53:50;98852.46;;;19.74;26.18
55022;BME280;68328;35.990;-86.756;2024-03-22T11:56:08;98842.86;;;19.25;26.33
55022;BME280;68328;35.990;-86.756;2024-03-22T11:58:33;98841.01;;;19.21;26.33
55022;BME280;68328;35.990;-86.756;2024-03-22T12:01:02;98841.78;;;19.19;26.28
55022;BME280;68328;35.990;-86.756;2024-03-22T12:03:25;98841.22;;;19.18;26.45
55022;BME280;68328;35.990;-86.756;2024-03-22T12:05:50;98841.68;;;19.65;26.40
55022;BME280;68328;35.990;-86.756;2024-03-22T12:08:14;98842.83;;;19.39;26.37
55022;BME280;68328;35.990;-86.756;2024-03-22T12:10:40;98842.42;;;19.17;26.42
55022;BME280;68328;35.990;-86.756;2024-03-22T12:13:05;98838.57;;;19.12;26.39
55022;BME280;68328;35.990;-86.756;2024-03-22T12:15:31;98830.93;;;19.10;26.45
55022;BME280;68328;35.990;-86.756;2024-03-22T12:17:56;98825.06;;;19.35;26.43
55022;BME280;68328;35.990;-86.756;2024-03-22T12:20:23;98822.60;;;19.11;26.48
55022;BME280;68328;35.990;-86.756;2024-03-22T12:22:47;98820.46;;;19.52;26.53
55022;BME280;68328;35.990;-86.756;2024-03-22T12:25:12;98824.26;;;19.18;26.72
55022;BME280;68328;35.990;-86.756;2024-03-22T12:27:38;98833.62;;;19.19;26.75
55022;BME280;68328;35.990;-86.756;2024-03-22T12:30:03;98836.95;;;19.39;26.70